Time;durP1;ratioP1;P1;durP2;ratioP2;P2;SDS_P1;SDS_P2;PMS_P1;PMS_P2;Temp;Humidity;BMP_temperature;BMP_pressure;BME280_temperature;BME280_humidity;BME280_pressure;Samples;Min_cycle;Max_cycle;Signal;HPM_P1;HPM_P2
2023/06/22 00:05:48;;;;;;;10.70;9.05;;;19.80;99.90;;;;;;12414648;28;20079;-38
2023/06/22 00:11:50;;;;;;;18.58;9.48;;;19.80;99.90;;;;;;12405024;28;20136;-38
2023/06/22 00:17:52;;;;;;;11.10;9.23;;;19.80;99.90;;;;;;12420284;28;20065;-38
2023/06/22 00:23:54;;;;;;;13.32;9.93;;;19.60;99.90;;;;;;12418966;28;20037;-38
2023/06/22 00:29:56;;;;;;;14.82;9.73;;;19.70;99.90;;;;;;12427342;28;20049;-39
2023/06/22 00:35:58;;;;;;;14.55;10.55;;;19.60;99.90;;;;;;12416268;28;20074;-38
2023/06/22 00:41:59;;;;;;;13.55;10.82;;;19.60;99.90;;;;;;12434746;28;20568;-39
2023/06/22 00:48:02;;;;;;;13.57;10.73;;;19.40;99.90;;;;;;12429078;28;20152;-39
2023/06/22 00:54:06;;;;;;;11.90;10.02;;;19.40;99.90;;;;;;12425006;28;20467;-38
2023/06/22 01:00:09;;;;;;;15.50;11.73;;;19.40;99.90;;;;;;12408425;28;20048;-38
2023/06/22 01:06:15;;;;;;;;;;;19.40;99.90;;;;;;12376461;28;20066;-37
2023/06/22 01:12:19;;;;;;;14.90;10.50;;;19.30;99.90;;;;;;12438966;28;19992;-39
2023/06/22 01:18:25;;;;;;;14.05;11.93;;;19.40;99.90;;;;;;12414806;28;20053;-39
2023/06/22 01:24:35;;;;;;;17.08;10.85;;;19.20;99.90;;;;;;12407652;28;20046;-38
2023/06/22 01:30:39;;;;;;;15.57;12.18;;;19.30;99.90;;;;;;12408295;28;20057;-39
2023/06/22 01:36:42;;;;;;;14.82;12.30;;;19.10;99.90;;;;;;12396416;28;20487;-38
2023/06/22 01:42:44;;;;;;;16.38;12.50;;;18.90;99.90;;;;;;12409693;28;20046;-38
2023/06/22 01:48:47;;;;;;;13.07;11.68;;;18.70;99.90;;;;;;12414914;28;20049;-38
2023/06/22 01:54:49;;;;;;;16.75;11.85;;;18.80;99.90;;;;;;12418463;28;20054;-38
2023/06/22 02:00:57;;;;;;;15.23;12.30;;;18.80;99.90;;;;;;12424887;28;20137;-38
2023/06/22 02:07:01;;;;;;;14.45;10.02;;;19.00;99.90;;;;;;12407333;28;20495;-40
2023/06/22 02:13:06;;;;;;;13.40;12.00;;;19.00;99.90;;;;;;12402827;28;20065;-38
2023/06/22 02:19:08;;;;;;;14.80;11.63;;;19.10;99.90;;;;;;12415750;28;20418;-38
2023/06/22 02:25:10;;;;;;;16.73;12.27;;;19.00;99.90;;;;;;12396338;28;20049;-38
2023/06/22 02:31:12;;;;;;;13.95;12.13;;;18.60;99.90;;;;;;12406836;28;20630;-38
2023/06/22 02:37:14;;;;;;;14.70;12.05;;;18.40;99.90;;;;;;12415851;28;20078;-38
2023/06/22 02:43:16;;;;;;;13.00;10.55;;;18.50;99.90;;;;;;12409465;28;20095;-38
2023/06/22 02:49:18;;;;;;;12.50;10.68;;;18.50;99.90;;;;;;12408525;28;20073;-38
2023/06/22 02:55:20;;;;;;;13.43;11.82;;;18.80;99.90;;;;;;12417966;28;20077;-38
2023/06/22 03:01:23;;;;;;;14.57;12.15;;;18.90;99.90;;;;;;12417515;28;20046;-38
2023/06/22 03:07:27;;;;;;;16.00;12.00;;;18.40;99.90;;;;;;12416672;28;20050;-38
2023/06/22 03:13:30;;;;;;;14.27;11.55;;;18.30;99.90;;;;;;12400214;28;20103;-38
2023/06/22 03:19:32;;;;;;;14.63;12.00;;;18.30;99.90;;;;;;12394276;28;20050;-38
2023/06/22 03:25:35;;;;;;;13.13;10.07;;;18.30;99.90;;;;;;12411877;28;20529;-39
2023/06/22 03:31:37;;;;;;;15.57;12.13;;;18.70;99.90;;;;;;12399341;28;20054;-39
2023/06/22 03:37:40;;;;;;;15.45;11.15;;;18.90;99.90;;;;;;12399592;28;20050;-38
2023/06/22 03:43:42;;;;;;;13.95;11.73;;;18.90;99.90;;;;;;12407138;28;20526;-38
2023/06/22 03:49:44;;;;;;;14.18;11.77;;;18.80;99.90;;;;;;12426036;28;20046;-38
2023/06/22 03:55:53;;;;;;;14.85;12.00;;;18.30;99.90;;;;;;12404720;28;20045;-38
2023/06/22 04:01:55;;;;;;;15.75;11.38;;;18.20;99.90;;;;;;12405512;28;20069;-38
2023/06/22 04:07:57;;;;;;;15.68;11.20;;;18.30;99.90;;;;;;12411121;28;20070;-38
2023/06/22 04:13:58;;;;;;;19.65;13.05;;;18.40;99.90;;;;;;12417660;28;20046;-38
2023/06/22 04:20:00;;;;;;;14.27;11.23;;;18.40;99.90;;;;;;12414087;28;20058;-39
2023/06/22 04:26:02;;;;;;;14.05;11.48;;;18.30;99.90;;;;;;12371400;28;20046;-38
2023/06/22 04:32:06;;;;;;;13.40;11.02;;;18.10;99.90;;;;;;12354915;28;20059;-38
2023/06/22 04:38:08;;;;;;;16.35;11.68;;;18.60;99.90;;;;;;12373098;28;20050;-38
2023/06/22 04:44:23;;;;;;;15.70;11.98;;;18.90;99.90;;;;;;12418210;28;20049;-38
2023/06/22 04:50:26;;;;;;;15.65;11.88;;;18.70;99.90;;;;;;12412962;28;20045;-38
2023/06/22 04:56:28;;;;;;;21.00;11.82;;;18.60;99.90;;;;;;12407675;28;20093;-38
2023/06/22 05:02:32;;;;;;;14.98;12.30;;;18.40;99.90;;;;;;12392075;28;20487;-38
2023/06/22 05:08:35;;;;;;;16.15;11.93;;;18.40;99.90;;;;;;12425390;28;20045;-38
2023/06/22 05:14:36;;;;;;;13.90;12.30;;;18.40;99.90;;;;;;12419821;28;20052;-38
2023/06/22 05:20:38;;;;;;;17.58;13.10;;;18.40;99.90;;;;;;12402892;28;20038;-40
2023/06/22 05:26:40;;;;;;;15.80;12.43;;;18.60;99.90;;;;;;12413822;28;20050;-38
2023/06/22 05:32:44;;;;;;;15.68;12.63;;;19.00;99.90;;;;;;12393131;28;20081;-38
2023/06/22 05:38:46;;;;;;;15.68;12.35;;;18.90;99.90;;;;;;12388488;28;20042;-38
2023/06/22 05:44:48;;;;;;;13.00;11.27;;;18.90;99.90;;;;;;12398376;28;20042;-38
2023/06/22 05:50:50;;;;;;;16.20;12.32;;;19.00;99.90;;;;;;12402316;28;20053;-38
2023/06/22 05:56:52;;;;;;;16.25;11.95;;;19.20;99.90;;;;;;12410414;28;20057;-38
2023/06/22 06:02:55;;;;;;;14.52;12.75;;;19.40;99.90;;;;;;12407862;28;20054;-38
2023/06/22 06:08:57;;;;;;;14.60;12.45;;;19.50;99.90;;;;;;12411161;28;20164;-38
2023/06/22 06:14:58;;;;;;;16.27;12.70;;;19.50;99.90;;;;;;12411448;28;20515;-38
2023/06/22 06:21:00;;;;;;;15.68;12.15;;;19.80;99.90;;;;;;12412588;28;20046;-38
2023/06/22 06:27:04;;;;;;;15.90;11.32;;;20.00;99.90;;;;;;12372280;28;20058;-38
2023/06/22 06:33:08;;;;;;;17.63;11.25;;;20.30;99.90;;;;;;12388098;28;20450;-38
2023/06/22 06:39:10;;;;;;;17.08;11.20;;;20.60;99.90;;;;;;12409960;28;20121;-39
2023/06/22 06:45:22;;;;;;;14.50;11.50;;;20.50;99.90;;;;;;12413899;28;20452;-38
2023/06/22 06:51:24;;;;;;;14.40;11.25;;;20.60;99.90;;;;;;12422345;28;20041;-38
2023/06/22 06:57:30;;;;;;;11.27;10.07;;;20.90;99.90;;;;;;12397324;28;20045;-38
2023/06/22 07:03:33;;;;;;;14.23;10.80;;;21.40;99.90;;;;;;12402111;28;20201;-38
2023/06/22 07:09:35;;;;;;;12.63;10.55;;;21.60;99.90;;;;;;12407740;28;20046;-38
2023/06/22 07:15:37;;;;;;;14.13;10.82;;;21.70;99.90;;;;;;12398526;28;20074;-39
2023/06/22 07:21:39;;;;;;;10.40;9.00;;;21.70;99.90;;;;;;12398597;28;20518;-39
2023/06/22 07:28:05;;;;;;;14.40;10.93;;;21.60;99.90;;;;;;12371677;28;20097;-38
2023/06/22 07:34:07;;;;;;;19.77;11.32;;;21.60;99.90;;;;;;12398247;28;20042;-40
2023/06/22 07:40:10;;;;;;;14.52;10.73;;;21.60;99.90;;;;;;12410499;28;20042;-38
2023/06/22 07:46:12;;;;;;;14.00;11.27;;;21.50;99.90;;;;;;12398653;28;20054;-38
2023/06/22 07:52:15;;;;;;;15.77;12.13;;;21.40;99.90;;;;;;12426278;28;20050;-38
2023/06/22 07:58:18;;;;;;;18.08;12.23;;;21.20;99.90;;;;;;12410740;28;20534;-38
2023/06/22 08:04:21;;;;;;;17.55;13.27;;;21.20;99.90;;;;;;12402627;28;20047;-38
2023/06/22 08:10:23;;;;;;;15.70;12.55;;;21.20;99.90;;;;;;12408019;28;20637;-38
2023/06/22 08:16:25;;;;;;;19.27;12.68;;;21.20;99.90;;;;;;12409490;28;20076;-38
2023/06/22 08:22:27;;;;;;;16.20;12.23;;;21.20;99.90;;;;;;12398672;28;20438;-38
2023/06/22 08:28:29;;;;;;;15.77;11.88;;;21.30;99.90;;;;;;12411338;28;20077;-38
2023/06/22 08:34:31;;;;;;;13.80;12.35;;;21.40;99.90;;;;;;12408981;28;20482;-39
2023/06/22 08:40:33;;;;;;;14.68;12.60;;;21.30;99.90;;;;;;12404800;28;20046;-39
2023/06/22 08:46:36;;;;;;;14.00;11.85;;;21.30;99.90;;;;;;12423277;28;20110;-39
2023/06/22 08:52:41;;;;;;;15.65;12.75;;;21.50;99.90;;;;;;12422545;28;20050;-38
2023/06/22 08:58:43;;;;;;;;;;;21.60;99.90;;;;;;12419213;28;20038;-39
2023/06/22 09:04:49;;;;;;;17.35;13.00;;;21.80;99.90;;;;;;12407771;28;19926;-38
2023/06/22 09:10:51;;;;;;;17.90;14.18;;;22.10;99.90;;;;;;12404881;28;20140;-39
2023/06/22 09:16:53;;;;;;;16.83;14.20;;;22.10;99.90;;;;;;12411503;28;20053;-40
2023/06/22 09:22:55;;;;;;;14.18;12.45;;;22.10;99.90;;;;;;12375280;28;20057;-40
2023/06/22 09:28:58;;;;;;;21.30;14.00;;;22.20;99.90;;;;;;12414399;28;20058;-39
2023/06/22 09:35:05;;;;;;;16.02;13.10;;;22.20;99.90;;;;;;12412987;28;20070;-39
2023/06/22 09:41:07;;;;;;;17.60;13.82;;;22.30;99.90;;;;;;12398984;28;20057;-39
2023/06/22 09:47:09;;;;;;;17.15;13.55;;;22.60;99.90;;;;;;12420431;28;20605;-39
2023/06/22 09:53:11;;;;;;;17.50;14.45;;;22.80;99.90;;;;;;12407855;28;20197;-39
2023/06/22 09:59:13;;;;;;;17.33;15.40;;;22.50;99.90;;;;;;12403165;28;20069;-38
2023/06/22 10:05:19;;;;;;;20.08;14.75;;;22.80;99.90;;;;;;12421799;28;20466;-39
2023/06/22 10:11:26;;;;;;;19.15;15.25;;;22.90;99.90;;;;;;12404403;28;20053;-39
2023/06/22 10:17:28;;;;;;;22.98;14.77;;;22.90;99.90;;;;;;12400023;28;20053;-39
2023/06/22 10:23:30;;;;;;;18.45;15.02;;;23.00;99.90;;;;;;12424091;28;20045;-38
2023/06/22 10:29:32;;;;;;;17.83;14.07;;;23.10;99.90;;;;;;12389356;28;20061;-38
2023/06/22 10:35:35;;;;;;;18.40;14.57;;;23.70;99.90;;;;;;12400279;28;20039;-39
2023/06/22 10:41:39;;;;;;;18.42;14.52;;;23.90;99.90;;;;;;12406385;28;20046;-39
2023/06/22 10:47:42;;;;;;;15.02;13.35;;;23.90;99.90;;;;;;12414560;28;20078;-39
2023/06/22 10:53:44;;;;;;;16.88;15.07;;;23.80;99.90;;;;;;12392506;28;20046;-40
2023/06/22 10:59:46;;;;;;;17.47;15.50;;;23.90;99.90;;;;;;12417540;28;20046;-40
2023/06/22 11:05:48;;;;;;;17.23;13.73;;;23.70;99.90;;;;;;12396477;28;20081;-39
2023/06/22 11:11:53;;;;;;;19.33;15.85;;;24.00;99.90;;;;;;12387005;28;20057;-40
2023/06/22 11:17:55;;;;;;;15.48;12.13;;;24.40;99.90;;;;;;12414313;28;20043;-40
2023/06/22 11:23:58;;;;;;;17.70;13.90;;;25.40;99.90;;;;;;12405238;28;20103;-39
2023/06/22 11:30:00;;;;;;;15.93;14.23;;;25.70;99.90;;;;;;12414811;28;20049;-40
2023/06/22 11:36:02;;;;;;;14.23;10.57;;;24.90;99.90;;;;;;12394882;28;20429;-40
2023/06/22 11:42:05;;;;;;;12.95;10.95;;;24.70;99.90;;;;;;12395088;28;20057;-40
2023/06/22 11:48:06;;;;;;;11.00;9.80;;;24.70;99.90;;;;;;12416452;28;20061;-40
2023/06/22 11:54:08;;;;;;;12.95;10.35;;;24.90;99.90;;;;;;12417258;28;20043;-40
2023/06/22 12:00:16;;;;;;;10.80;9.30;;;25.00;99.90;;;;;;12424769;28;20046;-40
2023/06/22 12:06:18;;;;;;;14.45;9.75;;;24.90;99.90;;;;;;12409531;28;20042;-40
2023/06/22 12:12:20;;;;;;;13.52;9.52;;;25.00;99.90;;;;;;12410812;28;20054;-40
2023/06/22 12:18:22;;;;;;;9.80;8.63;;;25.00;99.90;;;;;;12417346;28;20145;-40
2023/06/22 12:24:24;;;;;;;11.20;9.63;;;24.80;99.90;;;;;;12417293;28;20073;-39
2023/06/22 12:30:26;;;;;;;10.93;8.23;;;24.70;99.90;;;;;;12418838;28;20197;-39
2023/06/22 12:36:28;;;;;;;10.52;8.32;;;24.80;99.90;;;;;;12405713;28;20069;-39
2023/06/22 12:42:30;;;;;;;9.87;8.20;;;24.70;99.90;;;;;;12399689;28;20042;-39
2023/06/22 12:48:32;;;;;;;10.38;7.68;;;24.60;99.90;;;;;;12411370;28;20062;-40
2023/06/22 12:54:34;;;;;;;12.50;8.38;;;24.40;99.90;;;;;;12403221;28;20128;-39
2023/06/22 13:00:54;;;;;;;9.45;7.85;;;24.20;99.90;;;;;;12398061;28;20573;-39
2023/06/22 13:06:56;;;;;;;12.57;8.73;;;24.10;99.90;;;;;;12410355;28;20078;-40
2023/06/22 13:13:00;;;;;;;13.27;8.80;;;23.60;99.90;;;;;;12409610;28;20207;-39
2023/06/22 13:19:02;;;;;;;13.80;10.20;;;23.40;99.90;;;;;;12430629;28;20485;-39
2023/06/22 13:25:06;;;;;;;12.15;10.10;;;22.80;99.90;;;;;;12401263;28;20080;-40
2023/06/22 13:31:08;;;;;;;11.05;9.73;;;22.40;99.90;;;;;;12400443;28;20081;-39
2023/06/22 13:37:10;;;;;;;11.63;10.00;;;22.30;99.90;;;;;;12405771;28;20057;-39
2023/06/22 13:43:12;;;;;;;12.40;10.88;;;22.10;99.90;;;;;;12410508;28;20497;-40
2023/06/22 13:49:14;;;;;;;15.27;9.80;;;21.90;99.90;;;;;;12415637;28;20445;-39
2023/06/22 13:55:16;;;;;;;16.67;12.77;;;21.90;99.90;;;;;;12400821;28;20046;-40
2023/06/22 14:01:18;;;;;;;15.88;12.90;;;21.90;99.90;;;;;;12418288;28;20038;-39
2023/06/22 14:07:20;;;;;;;17.73;14.02;;;21.80;99.90;;;;;;12424637;28;20049;-41
2023/06/22 14:13:22;;;;;;;24.48;16.10;;;21.60;99.90;;;;;;12412926;28;20072;-40
2023/06/22 14:19:24;;;;;;;35.85;17.63;;;21.50;99.90;;;;;;12426257;28;20051;-38
2023/06/22 14:25:29;;;;;;;22.73;17.73;;;21.10;99.90;;;;;;12399522;28;20042;-38
2023/06/22 14:31:30;;;;;;;24.27;18.98;;;20.40;99.90;;;;;;12402790;28;20057;-40
2023/06/22 14:37:32;;;;;;;28.20;21.58;;;20.30;99.90;;;;;;12406915;28;20061;-39
2023/06/22 14:43:34;;;;;;;24.05;18.23;;;19.80;99.90;;;;;;12409957;28;20494;-39
2023/06/22 14:49:36;;;;;;;25.10;20.58;;;19.50;99.90;;;;;;12420359;28;20046;-38
2023/06/22 14:55:38;;;;;;;23.30;18.77;;;19.40;99.90;;;;;;12403494;28;20065;-39
2023/06/22 15:01:40;;;;;;;26.63;21.30;;;19.50;99.90;;;;;;12409477;28;20046;-38
2023/06/22 15:07:43;;;;;;;25.40;21.43;;;19.40;99.90;;;;;;12418117;28;20710;-40
2023/06/22 15:13:45;;;;;;;29.00;24.58;;;19.40;99.90;;;;;;12422742;28;20070;-39
2023/06/22 15:19:47;;;;;;;39.17;27.17;;;19.50;99.90;;;;;;12404377;28;20074;-39
2023/06/22 15:25:49;;;;;;;36.22;28.17;;;19.60;99.90;;;;;;12408898;28;20069;-39
2023/06/22 15:31:52;;;;;;;38.08;28.92;;;19.90;99.90;;;;;;12411339;28;20054;-40
2023/06/22 15:37:54;;;;;;;33.15;27.75;;;20.00;99.90;;;;;;12415766;28;20054;-40
2023/06/22 15:43:56;;;;;;;35.75;29.00;;;19.90;99.90;;;;;;12419684;28;20038;-40
2023/06/22 15:49:59;;;;;;;36.77;28.73;;;20.20;99.90;;;;;;12421083;28;20061;-40
2023/06/22 15:56:04;;;;;;;36.47;29.73;;;20.20;99.90;;;;;;12390147;28;20391;-39
2023/06/22 16:02:07;;;;;;;31.85;27.73;;;20.50;99.90;;;;;;12415343;28;20061;-40
2023/06/22 16:08:11;;;;;;;31.90;25.90;;;20.50;99.90;;;;;;12423398;28;20188;-39
2023/06/22 16:14:13;;;;;;;33.25;26.27;;;20.60;99.90;;;;;;12384109;28;20057;-40
2023/06/22 16:20:16;;;;;;;28.65;24.35;;;20.70;99.90;;;;;;12364939;28;20054;-39
2023/06/22 16:26:18;;;;;;;25.40;22.25;;;20.60;99.90;;;;;;12373114;28;20069;-39
2023/06/22 16:32:21;;;;;;;21.08;18.58;;;20.50;99.90;;;;;;12356989;28;20498;-38
2023/06/22 16:38:22;;;;;;;20.90;18.67;;;20.50;99.90;;;;;;12354008;28;20054;-40
2023/06/22 16:44:24;;;;;;;24.67;19.55;;;20.50;99.90;;;;;;12371069;28;20073;-39
2023/06/22 16:50:26;;;;;;;19.90;17.80;;;20.50;99.90;;;;;;12380248;28;20054;-38
2023/06/22 16:56:29;;;;;;;20.98;18.77;;;20.40;99.90;;;;;;12367513;28;20130;-39
2023/06/22 17:02:33;;;;;;;24.35;19.80;;;20.40;99.90;;;;;;12355036;28;20047;-39
2023/06/22 17:08:36;;;;;;;22.80;19.77;;;20.30;99.90;;;;;;12362045;28;20046;-39
2023/06/22 17:14:45;;;;;;;21.83;19.43;;;20.20;99.90;;;;;;12414837;28;20049;-40
2023/06/22 17:20:47;;;;;;;21.83;19.60;;;20.10;99.90;;;;;;12399420;28;20309;-39
2023/06/22 17:26:52;;;;;;;26.60;20.90;;;20.20;99.90;;;;;;12410696;28;20505;-38
2023/06/22 17:32:54;;;;;;;24.67;22.08;;;20.30;99.90;;;;;;12417250;28;20410;-39
2023/06/22 17:38:59;;;;;;;42.63;24.48;;;20.40;99.90;;;;;;12396371;28;20139;-38
2023/06/22 17:45:01;;;;;;;29.98;21.42;;;20.40;99.90;;;;;;12409653;28;20609;-39
2023/06/22 17:51:06;;;;;;;26.75;22.95;;;20.40;99.90;;;;;;12427646;28;20062;-39
2023/06/22 17:57:16;;;;;;;30.65;23.15;;;20.30;99.90;;;;;;12407702;28;20054;-39
2023/06/22 18:03:24;;;;;;;37.50;25.38;;;20.30;99.90;;;;;;12409845;28;20474;-40
2023/06/22 18:09:28;;;;;;;47.40;26.75;;;20.10;99.90;;;;;;12409364;28;20057;-39
2023/06/22 18:15:31;;;;;;;;;;;20.00;99.90;;;;;;12419701;28;20191;-39
2023/06/22 18:21:34;;;;;;;28.60;23.77;;;19.90;99.90;;;;;;12413026;28;19932;-39
2023/06/22 18:27:36;;;;;;;27.98;22.83;;;19.80;99.90;;;;;;12399153;28;20103;-39
2023/06/22 18:33:39;;;;;;;25.55;20.65;;;19.60;99.90;;;;;;12414241;28;20069;-39
2023/06/22 18:39:45;;;;;;;23.08;20.60;;;19.50;99.90;;;;;;12392844;28;20568;-39
2023/06/22 18:45:47;;;;;;;23.13;20.42;;;19.40;99.90;;;;;;12406717;28;20053;-39
2023/06/22 18:51:56;;;;;;;24.17;21.58;;;19.30;99.90;;;;;;12409067;28;20092;-39
2023/06/22 18:58:22;;;;;;;27.38;21.67;;;19.30;99.90;;;;;;12407716;28;20050;-39
2023/06/22 19:04:24;;;;;;;27.33;22.95;;;19.20;99.90;;;;;;12381049;28;20046;-40
2023/06/22 19:10:47;;;;;;;27.85;24.67;;;19.20;99.90;;;;;;12430222;28;20391;-39
2023/06/22 19:16:58;;;;;;;26.73;22.58;;;19.20;99.90;;;;;;12414522;28;20065;-40
2023/06/22 19:23:00;;;;;;;24.55;21.95;;;19.10;99.90;;;;;;12407802;28;20058;-39
2023/06/22 19:29:15;;;;;;;24.95;22.30;;;19.10;99.90;;;;;;12408474;28;20069;-38
2023/06/22 19:35:19;;;;;;;28.73;22.70;;;19.00;99.90;;;;;;12418022;28;20482;-39
2023/06/22 19:41:22;;;;;;;24.00;20.30;;;19.00;99.90;;;;;;12405851;28;20081;-39
2023/06/22 19:47:25;;;;;;;22.50;20.10;;;18.90;99.90;;;;;;12392009;28;20069;-40
2023/06/22 19:53:27;;;;;;;23.30;19.58;;;18.90;99.90;;;;;;12418104;28;20133;-40
2023/06/22 19:59:30;;;;;;;21.73;18.98;;;18.70;99.90;;;;;;12394987;28;20414;-39
2023/06/22 20:05:34;;;;;;;25.80;18.35;;;18.80;99.90;;;;;;12403320;28;20046;-41
2023/06/22 20:11:36;;;;;;;23.10;19.08;;;18.70;99.90;;;;;;12427735;28;20446;-40
2023/06/22 20:17:47;;;;;;;24.27;19.27;;;18.60;99.90;;;;;;12437757;28;20188;-39
2023/06/22 20:23:49;;;;;;;25.67;19.70;;;18.70;99.90;;;;;;12400874;28;20062;-40
2023/06/22 20:29:50;;;;;;;26.63;21.10;;;18.60;99.90;;;;;;12417938;28;20127;-39
2023/06/22 20:35:52;;;;;;;23.98;20.05;;;18.60;99.90;;;;;;12409441;28;20085;-38
2023/06/22 20:41:54;;;;;;;25.65;20.15;;;18.50;99.90;;;;;;12414009;28;20529;-38
2023/06/22 20:47:58;;;;;;;24.63;20.77;;;18.50;99.90;;;;;;12403258;28;20137;-38
2023/06/22 20:54:00;;;;;;;23.45;19.67;;;18.50;99.90;;;;;;12396374;28;20089;-38
2023/06/22 21:00:06;;;;;;;22.85;19.25;;;18.60;99.90;;;;;;12400004;28;20046;-38
2023/06/22 21:06:08;;;;;;;24.73;21.38;;;18.50;99.90;;;;;;12413693;28;20058;-41
2023/06/22 21:12:10;;;;;;;23.23;19.92;;;18.60;99.90;;;;;;12401525;28;20510;-38
2023/06/22 21:18:11;;;;;;;26.25;20.33;;;18.50;99.90;;;;;;12406461;28;20050;-38
2023/06/22 21:24:13;;;;;;;22.02;19.40;;;18.40;99.90;;;;;;12400146;28;20438;-39
2023/06/22 21:30:16;;;;;;;24.17;20.30;;;18.50;99.90;;;;;;12396034;28;20434;-38
2023/06/22 21:36:17;;;;;;;24.20;19.52;;;18.40;99.90;;;;;;12412349;28;20431;-38
2023/06/22 21:42:21;;;;;;;29.17;20.70;;;18.50;99.90;;;;;;12412439;28;20076;-39
2023/06/22 21:48:23;;;;;;;;;;;18.60;99.90;;;;;;12413218;28;20045;-39
2023/06/22 21:54:25;;;;;;;29.83;19.92;;;18.60;99.90;;;;;;12399843;28;19928;-39
2023/06/22 22:00:27;;;;;;;26.67;20.70;;;18.70;99.90;;;;;;12407612;28;20137;-38
2023/06/22 22:06:29;;;;;;;25.85;20.60;;;18.60;99.90;;;;;;12402837;28;20391;-39
2023/06/22 22:12:31;;;;;;;30.17;21.17;;;18.50;99.90;;;;;;12409382;28;20541;-38
2023/06/22 22:18:33;;;;;;;25.90;21.05;;;18.50;99.90;;;;;;12396150;28;20054;-39
2023/06/22 22:24:35;;;;;;;27.52;21.80;;;18.50;99.90;;;;;;12410871;28;20089;-38
2023/06/22 22:30:36;;;;;;;27.27;20.30;;;18.50;99.90;;;;;;12403281;28;20112;-38
2023/06/22 22:36:41;;;;;;;23.05;20.00;;;18.40;99.90;;;;;;12423880;28;20072;-38
2023/06/22 22:42:43;;;;;;;24.30;19.38;;;18.30;99.90;;;;;;12407038;28;20425;-39
2023/06/22 22:48:45;;;;;;;23.05;19.70;;;18.30;99.90;;;;;;12416264;28;20045;-38
2023/06/22 22:54:47;;;;;;;24.75;20.60;;;18.40;99.90;;;;;;12378104;28;20569;-38
2023/06/22 23:00:50;;;;;;;24.10;20.08;;;18.40;99.90;;;;;;12388930;28;20082;-38
2023/06/22 23:06:52;;;;;;;27.93;20.80;;;18.30;99.90;;;;;;12405752;28;20053;-38
2023/06/22 23:12:53;;;;;;;25.35;17.90;;;18.30;99.90;;;;;;12406737;28;20509;-38
2023/06/22 23:18:56;;;;;;;26.70;18.33;;;18.30;99.90;;;;;;12405296;28;20054;-38
2023/06/22 23:24:57;;;;;;;24.48;18.27;;;18.20;99.90;;;;;;12406872;28;20049;-38
2023/06/22 23:30:59;;;;;;;25.27;19.30;;;18.40;99.90;;;;;;12384233;28;20054;-38
2023/06/22 23:37:03;;;;;;;27.30;19.52;;;18.30;99.90;;;;;;12397957;28;20085;-38
2023/06/22 23:43:08;;;;;;;24.15;20.50;;;18.30;99.90;;;;;;12392505;28;20050;-40
2023/06/22 23:49:09;;;;;;;24.60;19.80;;;18.40;99.90;;;;;;12418684;28;20081;-39
2023/06/22 23:55:11;;;;;;;23.67;17.52;;;18.40;99.90;;;;;;12403425;28;20100;-39
